createdAt,value
2022-10-04T00:05:52.538Z,1.60
2022-10-04T00:15:58.725Z,2.20
2022-10-04T00:26:07.888Z,2.40
2022-10-04T00:36:24.776Z,2.60
2022-10-04T00:46:30.455Z,2.42
2022-10-04T00:56:52.131Z,2.13
2022-10-04T01:06:54.582Z,2.30
2022-10-04T01:16:57.457Z,2.50
2022-10-04T01:27:01.005Z,3.57
2022-10-04T01:37:02.833Z,2.22
2022-10-04T01:47:14.221Z,2.70
2022-10-04T01:57:26.901Z,2.90
2022-10-04T02:07:32.850Z,3.17
2022-10-04T02:17:43.697Z,2.90
2022-10-04T02:27:46.800Z,2.97
2022-10-04T02:37:55.329Z,2.72
2022-10-04T02:48:19.537Z,3.08
2022-10-04T02:58:25.581Z,3.40
2022-10-04T03:08:30.186Z,3.70
2022-10-04T03:18:33.018Z,3.10
2022-10-04T03:28:37.283Z,4.03
2022-10-04T03:38:40.293Z,3.85
2022-10-04T03:48:46.882Z,3.80
2022-10-04T03:58:50.845Z,3.30
2022-10-04T04:09:39.574Z,3.45
2022-10-04T04:19:42.498Z,2.88
2022-10-04T04:29:53.547Z,2.83
2022-10-04T04:39:56.012Z,3.60
2022-10-04T04:50:04.339Z,2.55
2022-10-04T05:00:06.730Z,2.70
2022-10-04T05:10:30.589Z,2.92
2022-10-04T05:41:01.360Z,3.85
2022-10-04T05:51:23.191Z,2.67
2022-10-04T06:01:47.312Z,2.75
2022-10-04T06:11:51.949Z,2.40
2022-10-04T06:22:15.607Z,2.17
2022-10-04T06:42:48.471Z,2.17
2022-10-04T06:53:38.517Z,2.00
2022-10-04T07:04:01.041Z,2.25
2022-10-04T07:14:06.226Z,3.23
2022-10-04T07:24:18.379Z,2.80
2022-10-04T07:34:27.229Z,2.13
2022-10-04T07:44:35.342Z,2.17
2022-10-04T07:54:59.161Z,2.20
2022-10-04T08:05:13.345Z,3.20
2022-10-04T08:15:24.979Z,1.67
2022-10-04T08:25:34.232Z,1.85
2022-10-04T08:35:40.380Z,1.88
2022-10-04T08:46:00.917Z,1.80
2022-10-04T08:56:24.352Z,2.05
2022-10-04T09:06:58.805Z,2.05
2022-10-04T09:17:22.887Z,2.40
2022-10-04T09:27:54.713Z,1.70
2022-10-04T09:38:23.543Z,1.90
2022-10-04T09:48:43.545Z,2.10
2022-10-04T09:59:18.696Z,1.50
2022-10-04T10:10:04.900Z,1.33
2022-10-04T10:21:05.340Z,1.58
2022-10-04T10:31:54.569Z,1.63
2022-10-04T10:42:17.923Z,2.17
2022-10-04T10:52:46.864Z,1.77
2022-10-04T11:03:12.188Z,1.40
2022-10-04T11:13:21.471Z,1.10
2022-10-04T11:23:49.256Z,1.25
2022-10-04T11:34:18.533Z,1.38
2022-10-04T11:44:41.260Z,1.58
2022-10-04T11:55:01.796Z,1.15
2022-10-04T12:05:23.789Z,1.40
2022-10-04T12:15:41.126Z,1.95
2022-10-04T12:25:48.709Z,1.50
2022-10-04T12:36:25.201Z,1.40
2022-10-04T12:46:53.476Z,2.00
2022-10-04T12:57:35.768Z,1.83
2022-10-04T13:07:43.558Z,1.15
2022-10-04T13:18:33.177Z,1.33
2022-10-04T13:28:49.327Z,1.98
2022-10-04T13:39:07.566Z,0.45
2022-10-04T13:49:37.739Z,0.60
2022-10-04T13:59:54.367Z,0.70
2022-10-04T14:10:11.403Z,1.60
2022-10-04T14:20:31.348Z,0.90
2022-10-04T14:31:01.967Z,0.90
2022-10-04T14:41:35.512Z,1.35
2022-10-04T14:51:40.068Z,1.27
2022-10-04T15:02:01.605Z,1.50
2022-10-04T15:12:46.006Z,1.05
2022-10-04T15:22:55.998Z,1.52
2022-10-04T15:33:34.890Z,1.02
2022-10-04T15:43:45.080Z,1.02
2022-10-04T15:54:12.711Z,1.63
2022-10-04T16:04:18.248Z,1.80
2022-10-04T16:14:26.219Z,1.30
2022-10-04T16:24:52.434Z,2.10
2022-10-04T16:35:04.423Z,2.10
2022-10-04T16:45:05.949Z,1.83
2022-10-04T16:55:23.487Z,1.70
2022-10-04T17:05:44.538Z,2.80
2022-10-04T17:16:33.926Z,2.97
2022-10-04T17:26:48.632Z,4.07
2022-10-04T17:36:56.377Z,3.75
2022-10-04T17:47:14.317Z,3.78
2022-10-04T17:57:26.235Z,4.30
2022-10-04T18:07:43.860Z,5.05
2022-10-04T18:17:49.380Z,4.72
2022-10-04T18:28:14.757Z,5.85
2022-10-04T18:38:28.724Z,6.20
2022-10-04T18:48:40.760Z,6.47
2022-10-04T18:59:21.063Z,6.05
2022-10-04T19:09:57.218Z,7.13
2022-10-04T19:20:18.953Z,7.57
2022-10-04T19:30:54.282Z,8.05
2022-10-04T19:41:22.896Z,8.48
2022-10-04T19:51:37.176Z,8.82
2022-10-04T20:01:41.241Z,7.60
2022-10-04T20:11:49.784Z,10.02
2022-10-04T20:21:54.570Z,8.57
2022-10-04T20:31:56.303Z,8.98
2022-10-04T20:42:20.219Z,10.90
2022-10-04T20:52:33.273Z,9.20
2022-10-04T21:02:37.118Z,9.23
2022-10-04T21:12:40.615Z,9.73
2022-10-04T21:22:42.728Z,8.20
2022-10-04T21:32:45.892Z,9.00
2022-10-04T21:42:47.556Z,8.70
2022-10-04T21:52:49.178Z,8.32
2022-10-04T22:02:50.771Z,8.23
2022-10-04T22:12:56.824Z,9.45
2022-10-04T22:22:59.246Z,9.27
2022-10-04T22:33:40.789Z,9.40
2022-10-04T22:43:43.110Z,10.48
2022-10-04T22:53:46.885Z,12.05
2022-10-04T23:13:53.656Z,11.60
2022-10-04T23:23:55.410Z,12.80
2022-10-04T23:33:58.078Z,11.77
2022-10-04T23:44:03.483Z,12.02
2022-10-04T23:54:06.290Z,11.85
